Terminal Aerodrome Forecast
Issued by NWS

Home | Current Version | Previous Version | Text Only | Print | Product List | Glossary On
Versions: 1 2 3 4 5 6 7 8 9 10 11 12 13 14 15 16 17 18 19 20 21 22 23 24 25 26 27 28 29 30 31 32
762
FTAK31 PANC 190525
TAFADU
TAF
PADU 190525Z 1906/2006 15015G25KT P6SM BKN040 WS020/18050KT
     FM190800 15020G30KT P6SM VCSH SCT015 OVC025 WS020/18060KT
     FM191500 14012G20KT 4SM -RA BR OVC010 WS020/20050KT
     FM191800 20011KT 4SM BR OVC007
     FM192200 20008KT P6SM SCT025 BKN035=

USA.gov is the U.S. government's official web portal to all federal, state and local government web resources and services.